Time;durP1;ratioP1;P1;durP2;ratioP2;P2;SDS_P1;SDS_P2;PMS_P1;PMS_P2;Temp;Humidity;BMP_temperature;BMP_pressure;BME280_temperature;BME280_humidity;BME280_pressure;Samples;Min_cycle;Max_cycle;Signal;HPM_P1;HPM_P2
2022/03/14 00:00:36;;;;;;;12.30;7.72;;;;;;;5.91;71.13;101522.41;10210776;29;20069;-87
2022/03/14 00:05:36;;;;;;;12.73;8.05;;;;;;;6.22;71.50;101571.06;10194138;29;20385;-87
2022/03/14 00:10:37;;;;;;;15.80;8.13;;;;;;;6.48;72.09;101611.28;10194603;29;20074;-87
2022/03/14 00:15:40;;;;;;;12.32;7.82;;;;;;;6.44;72.01;101601.81;10225052;28;20027;-87
2022/03/14 00:20:41;;;;;;;13.02;8.02;;;;;;;6.36;72.04;101593.78;10210399;29;20059;-87
2022/03/14 00:25:42;;;;;;;11.98;7.72;;;;;;;6.22;71.83;101574.66;10224402;29;20070;-87
2022/03/14 00:30:42;;;;;;;13.82;8.40;;;;;;;6.89;71.56;101655.94;10192116;29;20126;-87
2022/03/14 00:35:43;;;;;;;15.18;8.07;;;;;;;6.65;71.20;101622.63;10224409;29;20023;-87
2022/03/14 00:40:45;;;;;;;14.20;9.15;;;;;;;6.78;72.77;101639.09;10193403;29;20042;-87
2022/03/14 00:45:46;;;;;;;15.20;8.48;;;;;;;6.57;73.66;101653.78;10208379;29;20094;-87
2022/03/14 00:50:47;;;;;;;12.07;7.85;;;;;;;6.34;75.91;101618.59;10206715;29;20051;-87
2022/03/14 00:55:47;;;;;;;14.70;9.38;;;;;;;6.09;76.95;101612.88;10183564;29;20038;-87
2022/03/14 01:00:49;;;;;;;16.80;9.65;;;;;;;6.19;79.10;101657.06;10177687;29;20059;-87
2022/03/14 01:05:49;;;;;;;13.65;9.75;;;;;;;6.05;81.69;101689.00;10191958;29;20034;-87
2022/03/14 01:10:50;;;;;;;16.80;10.48;;;;;;;5.37;82.79;101619.72;10223190;29;20368;-87
2022/03/14 01:15:50;;;;;;;15.45;9.52;;;;;;;5.18;84.68;101626.75;10206690;29;20054;-87
2022/03/14 01:20:51;;;;;;;15.00;9.35;;;;;;;5.47;87.87;101724.81;10206738;29;20187;-86
2022/03/14 01:25:52;;;;;;;14.88;9.90;;;;;;;5.35;89.83;101734.59;10190767;29;20035;-87
2022/03/14 01:30:52;;;;;;;15.38;9.70;;;;;;;4.72;91.74;101643.63;10221739;29;20031;-86
2022/03/14 01:35:53;;;;;;;17.27;11.20;;;;;;;4.87;93.79;101666.19;10190750;29;20110;-87
2022/03/14 01:40:55;;;;;;;18.35;9.85;;;;;;;4.61;95.06;101599.47;10206238;29;20031;-87
2022/03/14 01:45:56;;;;;;;16.70;10.57;;;;;;;5.30;96.32;101674.28;10190697;29;20031;-86
2022/03/14 01:50:58;;;;;;;14.38;9.52;;;;;;;5.33;97.95;101670.31;10237374;29;20058;-87
2022/03/14 01:55:58;;;;;;;18.17;10.50;;;;;;;5.57;100.00;101726.34;10206052;29;20472;-87
2022/03/14 02:00:59;;;;;;;15.70;9.95;;;;;;;5.36;100.00;101667.19;10205364;28;20059;-87
2022/03/14 02:06:00;;;;;;;16.65;11.68;;;;;;;5.57;100.00;101685.38;10220548;29;20023;-87
2022/03/14 02:11:00;;;;;;;17.50;10.10;;;;;;;5.33;100.00;101645.72;10205255;29;20053;-87
2022/03/14 02:16:01;;;;;;;15.88;10.90;;;;;;;5.65;100.00;101693.41;10188933;29;20055;-87
2022/03/14 02:21:01;;;;;;;17.00;10.30;;;;;;;5.60;100.00;101669.44;10204589;29;20039;-87
2022/03/14 02:26:02;;;;;;;18.50;10.73;;;;;;;5.66;100.00;101678.69;10189020;29;20464;-87
2022/03/14 02:31:03;;;;;;;16.52;10.32;;;;;;;5.82;100.00;101692.00;10219659;29;20593;-86
2022/03/14 02:36:04;;;;;;;19.77;10.90;;;;;;;5.64;100.00;101678.03;10202905;28;20444;-87
2022/03/14 02:41:04;;;;;;;15.88;10.00;;;;;;;5.98;100.00;101725.56;10188496;29;20094;-87
2022/03/14 02:46:05;;;;;;;18.48;10.77;;;;;;;6.10;100.00;101734.88;10204120;29;20035;-87
2022/03/14 02:51:06;;;;;;;15.85;10.35;;;;;;;5.76;100.00;101701.03;10219467;29;20107;-87
2022/03/14 02:56:06;;;;;;;14.70;10.63;;;;;;;6.14;100.00;101747.09;10219119;29;20034;-87
2022/03/14 03:01:08;;;;;;;15.32;9.95;;;;;;;6.17;100.00;101760.34;10204037;29;20126;-87
2022/03/14 03:06:10;;;;;;;18.88;9.38;;;;;;;6.25;100.00;101773.84;10203304;29;20568;-87
2022/03/14 03:11:11;;;;;;;17.05;10.88;;;;;;;5.80;100.00;101712.41;10219104;28;20054;-87
2022/03/14 03:16:13;;;;;;;17.58;10.77;;;;;;;5.69;100.00;101694.69;10202830;29;20039;-87
2022/03/14 03:21:15;;;;;;;16.77;10.82;;;;;;;6.07;100.00;101740.72;10219548;29;20398;-87
2022/03/14 03:26:16;;;;;;;14.93;10.38;;;;;;;6.18;100.00;101770.25;10202963;29;20062;-87
2022/03/14 03:31:20;;;;;;;14.27;9.48;;;;;;;6.29;100.00;101777.03;10202763;29;20023;-87
2022/03/14 03:36:20;;;;;;;17.63;10.55;;;;;;;6.19;100.00;101760.97;10219073;29;20470;-87
2022/03/14 03:41:21;;;;;;;16.92;11.15;;;;;;;5.46;100.00;101649.38;10187085;29;20043;-87
2022/03/14 03:46:21;;;;;;;12.23;8.68;;;;;;;6.01;100.00;101733.34;10187058;29;20031;-87
2022/03/14 03:51:22;;;;;;;15.90;9.75;;;;;;;6.52;100.00;101822.34;10186541;29;20066;-87
2022/03/14 03:56:22;;;;;;;14.38;8.70;;;;;;;5.77;100.00;101689.06;10202314;29;20479;-87
2022/03/14 04:01:23;;;;;;;15.13;9.63;;;;;;;6.10;100.00;101754.00;10185406;29;20031;-87
2022/03/14 04:06:26;;;;;;;13.80;8.68;;;;;;;5.90;100.00;101726.53;10200955;29;20470;-87
2022/03/14 04:11:26;;;;;;;16.00;9.30;;;;;;;6.36;100.00;101777.88;10233081;29;20510;-87
2022/03/14 04:16:27;;;;;;;15.15;9.25;;;;;;;5.62;100.00;101664.63;10201483;29;20034;-87
2022/03/14 04:21:28;;;;;;;13.77;8.85;;;;;;;5.75;100.00;101699.34;10216701;29;20027;-87
2022/03/14 04:26:28;;;;;;;14.23;8.55;;;;;;;5.82;100.00;101661.97;10207726;29;20428;-87
2022/03/14 04:31:29;;;;;;;15.52;8.60;;;;;;;6.63;100.00;101800.69;10223176;29;20058;-87
2022/03/14 04:36:29;;;;;;;11.68;6.88;;;;;;;6.01;100.00;101703.28;10191898;29;20118;-87
2022/03/14 04:41:37;;;;;;;10.82;6.88;;;;;;;6.37;100.00;101763.16;10182815;29;20031;-87
2022/03/14 04:46:38;;;;;;;11.85;6.13;;;;;;;6.42;100.00;101790.72;10200224;29;20083;-87
2022/03/14 04:51:39;;;;;;;8.50;6.20;;;;;;;6.50;100.00;101792.47;10187275;29;20109;-87
2022/03/14 04:56:40;;;;;;;10.25;6.45;;;;;;;6.20;100.00;101770.88;10207394;29;20039;-86
2022/03/14 05:01:40;;;;;;;9.40;6.53;;;;;;;7.17;100.00;101926.81;10191603;29;20388;-87
2022/03/14 05:06:42;;;;;;;12.02;7.10;;;;;;;6.69;100.00;101853.78;10207487;29;20194;-87
2022/03/14 05:11:42;;;;;;;11.45;6.65;;;;;;;6.57;100.00;101834.34;10222412;29;20106;-86
2022/03/14 05:16:43;;;;;;;10.98;6.82;;;;;;;6.74;100.00;101866.84;10206273;29;20213;-87
2022/03/14 05:21:43;;;;;;;11.80;6.32;;;;;;;7.15;100.00;101950.81;10206255;29;20035;-87
2022/03/14 05:26:44;;;;;;;8.45;6.45;;;;;;;7.10;100.00;101936.91;10207305;29;20396;-87
2022/03/14 05:31:44;;;;;;;11.32;6.15;;;;;;;6.31;100.00;101842.47;10196975;29;20060;-87
2022/03/14 05:36:45;;;;;;;10.25;6.25;;;;;;;6.68;100.00;101906.81;10204712;28;20039;-87
2022/03/14 05:41:45;;;;;;;10.88;6.95;;;;;;;6.51;100.00;101897.25;10189382;29;20038;-87
2022/03/14 05:46:46;;;;;;;9.05;6.20;;;;;;;6.38;100.00;101889.81;10220410;29;20543;-86
2022/03/14 05:51:49;;;;;;;11.43;5.90;;;;;;;6.40;100.00;101904.13;10220932;29;20059;-86
2022/03/14 05:56:49;;;;;;;11.25;7.22;;;;;;;6.92;100.00;101995.78;10206338;29;20039;-87
2022/03/14 06:01:50;;;;;;;10.35;6.70;;;;;;;6.59;100.00;101936.22;10220880;29;20038;-87
2022/03/14 06:06:50;;;;;;;11.55;7.80;;;;;;;6.58;100.00;101937.28;10236957;29;20491;-87
2022/03/14 06:11:51;;;;;;;11.68;7.63;;;;;;;6.15;100.00;101885.47;10189252;29;20034;-87
2022/03/14 06:16:52;;;;;;;12.25;8.32;;;;;;;6.54;100.00;101952.41;10205632;29;20042;-87
2022/03/14 06:21:52;;;;;;;17.83;8.68;;;;;;;6.91;100.00;102018.75;10220601;29;20042;-87
2022/03/14 06:26:53;;;;;;;17.23;8.93;;;;;;;6.66;100.00;101985.53;10241122;28;20066;-87
2022/03/14 06:31:54;;;;;;;16.75;9.38;;;;;;;6.71;100.00;102009.56;10222882;29;20039;-87
2022/03/14 06:36:55;;;;;;;15.27;8.93;;;;;;;6.84;100.00;102026.94;10220515;29;20034;-87
2022/03/14 06:41:57;;;;;;;15.18;8.73;;;;;;;6.67;100.00;101979.00;10204447;29;20472;-87
2022/03/14 06:46:58;;;;;;;14.93;9.65;;;;;;;6.95;100.00;102050.16;10220292;28;20116;-88
2022/03/14 06:51:58;;;;;;;15.82;9.40;;;;;;;6.31;100.00;101921.78;10188627;29;20055;-87
2022/03/14 06:56:59;;;;;;;16.05;8.77;;;;;;;7.28;100.00;102098.78;10217675;29;20043;-87
2022/03/14 07:02:00;;;;;;;14.38;8.50;;;;;;;6.31;100.00;101938.19;10164053;29;20039;-88
2022/03/14 07:07:03;;;;;;;13.43;8.15;;;;;;;7.15;100.00;102082.25;10180982;29;20115;-88
2022/03/14 07:12:04;;;;;;;13.75;8.98;;;;;;;7.04;100.00;102054.41;10223001;29;20041;-88
2022/03/14 07:17:05;;;;;;;15.18;9.25;;;;;;;6.77;100.00;102009.59;10203019;29;20126;-87
2022/03/14 07:22:05;;;;;;;16.38;9.35;;;;;;;6.18;100.00;101917.91;10202516;29;20038;-88
2022/03/14 07:27:06;;;;;;;13.60;9.10;;;;;;;6.71;100.00;102004.09;10218251;29;20035;-88
2022/03/14 07:32:07;;;;;;;20.95;10.23;;;;;;;7.54;100.00;102132.84;10201848;29;20035;-88
2022/03/14 07:37:07;;;;;;;17.25;9.23;;;;;;;6.94;100.00;102051.19;10203618;29;20023;-88
2022/03/14 07:42:08;;;;;;;17.92;9.73;;;;;;;7.28;100.00;102076.88;10178673;29;20039;-88
2022/03/14 07:47:10;;;;;;;13.40;9.18;;;;;;;7.45;100.00;102113.00;10189619;29;20039;-88
2022/03/14 07:52:11;;;;;;;15.30;9.10;;;;;;;6.63;100.00;101959.41;10202929;29;20051;-88
2022/03/14 07:57:11;;;;;;;13.23;8.90;;;;;;;7.33;100.00;102068.88;10203315;28;20093;-88
2022/03/14 08:02:15;;;;;;;14.82;9.18;;;;;;;7.34;100.00;102076.06;10210558;29;20046;-88
2022/03/14 08:07:18;;;;;;;14.75;9.20;;;;;;;7.44;100.00;102092.97;10210480;29;20035;-88
2022/03/14 08:12:21;;;;;;;14.15;9.57;;;;;;;7.49;100.00;102106.06;10197265;29;20063;-88
2022/03/14 08:17:22;;;;;;;15.75;10.30;;;;;;;6.76;100.00;102002.44;10217328;28;20039;-89
2022/03/14 08:22:22;;;;;;;15.85;9.93;;;;;;;7.04;100.00;102021.53;10250002;28;20015;-88
2022/03/14 08:27:23;;;;;;;15.25;10.25;;;;;;;7.87;100.00;102190.56;10259292;28;20015;-89
2022/03/14 08:32:24;;;;;;;16.10;10.25;;;;;;;6.99;100.00;102045.13;10193068;29;20023;-89
2022/03/14 08:37:26;;;;;;;17.02;11.13;;;;;;;7.19;100.00;102084.41;10193868;29;20027;-88
2022/03/14 08:42:26;;;;;;;17.25;11.00;;;;;;;7.25;100.00;102094.53;10207878;29;20027;-89
2022/03/14 08:47:27;;;;;;;18.67;11.68;;;;;;;7.06;100.00;102057.78;10209624;29;20027;-89
2022/03/14 08:52:28;;;;;;;19.08;10.98;;;;;;;6.52;100.00;101967.34;10211627;29;20042;-89
2022/03/14 08:57:29;;;;;;;17.10;11.10;;;;;;;7.78;100.00;102157.00;10199601;29;20034;-90
2022/03/14 09:02:29;;;;;;;16.83;11.05;;;;;;;8.08;100.00;102220.63;10192705;29;20031;-89
2022/03/14 09:07:30;;;;;;;19.38;11.95;;;;;;;7.72;100.00;102171.50;10205693;29;20031;-90
2022/03/14 09:12:33;;;;;;;16.70;10.95;;;;;;;7.52;100.00;102099.31;10203614;29;20035;-89
2022/03/14 09:17:35;;;;;;;17.75;11.63;;;;;;;7.41;100.00;102093.38;10204685;29;20039;-89
2022/03/14 09:22:37;;;;;;;19.33;12.05;;;;;;;7.66;100.00;102123.00;10211390;29;20031;-89
2022/03/14 09:27:37;;;;;;;20.75;12.80;;;;;;;7.59;100.00;102097.47;10190032;29;20019;-88
2022/03/14 09:32:39;;;;;;;23.92;13.30;;;;;;;6.81;100.00;101982.69;10188082;29;20036;-91
2022/03/14 09:37:39;;;;;;;24.25;13.20;;;;;;;8.16;100.00;102156.47;10196720;29;20382;-86
2022/03/14 09:42:41;;;;;;;20.95;12.57;;;;;;;8.10;100.00;102132.63;10202983;29;20022;-91
2022/03/14 09:47:43;;;;;;;21.02;12.65;;;;;;;8.25;100.00;102185.44;10209314;29;20031;-89
2022/03/14 09:52:44;;;;;;;23.30;14.15;;;;;;;7.94;100.00;102097.34;10195633;29;20135;-90
2022/03/14 09:57:44;;;;;;;19.90;12.55;;;;;;;7.58;100.00;102054.66;10170688;29;20298;-90
2022/03/14 10:02:45;;;;;;;19.20;13.43;;;;;;;7.71;100.00;102090.34;10189794;29;20512;-90
2022/03/14 10:07:46;;;;;;;20.92;14.30;;;;;;;7.70;100.00;102090.53;10201527;29;20028;-88
2022/03/14 10:12:52;;;;;;;21.67;14.05;;;;;;;8.82;100.00;102275.75;10211082;29;20027;-90
2022/03/14 10:17:54;;;;;;;23.35;16.20;;;;;;;7.92;100.00;102114.03;10173814;29;20027;-90
2022/03/14 10:22:55;;;;;;;24.13;15.38;;;;;;;7.19;100.00;101982.22;10192939;28;20038;-90
2022/03/14 10:27:57;;;;;;;24.10;15.88;;;;;;;7.71;100.00;102076.63;10192466;29;20028;-90
2022/03/14 10:33:23;;;;;;;22.58;14.85;;;;;;;7.25;100.00;102033.44;10183780;29;20468;-90
2022/03/14 10:38:25;;;;;;;26.53;15.23;;;;;;;8.27;100.00;102186.06;10196284;29;20049;-90
2022/03/14 10:43:27;;;;;;;21.77;14.70;;;;;;;7.81;100.00;102126.44;10203497;29;20023;-91
2022/03/14 10:48:35;;;;;;;23.88;15.88;;;;;;;8.41;100.00;102208.09;10202988;29;20024;-90
2022/03/14 10:53:47;;;;;;;23.25;15.50;;;;;;;7.68;100.00;102082.50;10200513;29;20556;-90
2022/03/14 10:58:48;;;;;;;23.15;14.50;;;;;;;8.50;100.00;102226.06;10201899;29;20031;-90
2022/03/14 11:03:48;;;;;;;19.95;10.70;;;;;;;7.63;100.00;102192.78;10202399;29;20050;-90
2022/03/14 11:08:51;;;;;;;17.33;8.55;;;;;;;6.60;100.00;102069.28;10202505;29;20170;-90
2022/03/14 11:13:53;;;;;;;16.73;8.48;;;;;;;6.60;100.00;102063.81;10170398;29;20027;-91
2022/03/14 11:18:53;;;;;;;23.15;10.30;;;;;;;6.97;100.00;102151.25;10188807;29;20468;-91
2022/03/14 11:23:54;;;;;;;26.40;11.63;;;;;;;7.33;100.00;102199.53;10183897;29;20038;-90
2022/03/14 11:28:55;;;;;;;24.08;11.07;;;;;;;7.13;100.00;102141.88;10186118;29;20020;-92
2022/03/14 11:33:56;;;;;;;21.42;10.43;;;;;;;7.65;100.00;102250.97;10206520;29;20039;-92
2022/03/14 11:38:57;;;;;;;24.95;12.40;;;;;;;7.51;100.00;102219.06;10223422;29;20019;-92
2022/03/14 11:43:57;;;;;;;27.30;11.15;;;;;;;7.69;100.00;102237.72;10221404;29;20035;-92
2022/03/14 11:49:23;;;;;;;32.58;12.10;;;;;;;7.75;100.00;102233.31;10190001;29;20087;-92
2022/03/14 11:54:34;;;;;;;29.27;11.88;;;;;;;7.23;100.00;102117.72;10229777;29;20094;-93
2022/03/14 11:59:35;;;;;;;30.08;13.27;;;;;;;7.84;100.00;102241.16;10207262;29;20507;-92
2022/03/14 12:04:39;;;;;;;32.45;12.90;;;;;;;8.20;100.00;102352.53;10221638;29;20381;-93
2022/03/14 12:09:45;;;;;;;37.40;14.73;;;;;;;8.38;100.00;102357.50;10222265;29;20020;-93
2022/03/14 12:14:58;;;;;;;32.10;14.32;;;;;;;8.70;100.00;102401.81;10213442;29;20383;-93
2022/03/14 12:20:11;;;;;;;34.63;13.00;;;;;;;8.33;100.00;102309.75;10211910;29;20113;-92
2022/03/14 12:25:42;;;;;;;31.55;13.95;;;;;;;8.64;100.00;102367.81;10198968;29;20031;-93
2022/03/14 12:31:15;;;;;;;27.52;13.90;;;;;;;7.31;100.00;102185.19;10193697;29;20067;-91
2022/03/14 12:36:19;;;;;;;33.60;14.00;;;;;;;8.55;100.00;102374.50;10204902;29;20106;-92
2022/03/14 12:41:25;;;;;;;35.33;14.45;;;;;;;7.38;100.00;102205.25;10220005;29;20032;-93
2022/03/14 12:46:33;;;;;;;32.00;15.35;;;;;;;7.42;100.00;102204.66;10202161;29;20027;-92
2022/03/14 12:51:39;;;;;;;34.17;14.93;;;;;;;7.15;100.00;102156.22;10188743;29;20050;-92
2022/03/14 12:56:44;;;;;;;29.02;13.23;;;;;;;8.38;100.00;102330.06;10174447;29;20121;-92
2022/03/14 13:01:45;;;;;;;26.75;12.05;;;;;;;8.75;100.00;102388.31;10210359;29;20023;-86
2022/03/14 13:06:48;;;;;;;34.03;13.32;;;;;;;8.73;100.00;102420.63;10206662;29;20090;-91
2022/03/14 13:11:49;;;;;;;32.20;13.50;;;;;;;8.38;100.00;102341.03;10207564;29;20095;-92
2022/03/14 13:16:59;;;;;;;30.20;16.42;;;;;;;7.23;100.00;102189.75;10204765;29;20098;-94
2022/03/14 13:22:23;;;;;;;30.63;16.65;;;;;;;7.66;100.00;102217.03;10178723;29;20035;-93
2022/03/14 13:27:27;;;;;;;37.50;16.80;;;;;;;8.11;100.00;102311.78;10208081;29;20428;-92
2022/03/14 13:32:36;;;;;;;37.47;16.45;;;;;;;7.67;100.00;102250.78;10190686;29;20492;-91
2022/03/14 13:38:50;;;;;;;;;;;;;;;;;;;;;
2022/03/14 13:44:06;;;;;;;39.38;17.63;;;;;;;8.28;100.00;102357.03;10231935;29;20027;-89
2022/03/14 13:49:20;;;;;;;35.05;17.70;;;;;;;8.48;100.00;102362.66;10206477;29;20035;-93
2022/03/14 13:54:40;;;;;;;45.05;18.77;;;;;;;9.11;100.00;102430.28;10205653;29;20055;-93
2022/03/14 13:59:46;;;;;;;33.42;19.23;;;;;;;8.05;100.00;102275.03;10193103;29;20034;-92
2022/03/14 14:04:51;;;;;;;41.30;18.02;;;;;;;8.01;100.00;102243.56;10202141;29;20023;-92
2022/03/14 14:09:56;;;;;;;37.42;18.52;;;;;;;7.74;100.00;102199.56;10203315;29;20366;-92
2022/03/14 14:14:56;;;;;;;32.92;18.35;;;;;;;9.54;100.00;102439.06;10193943;29;20016;-92
2022/03/14 14:20:04;;;;;;;31.25;18.17;;;;;;;8.52;100.00;102287.09;10213028;29;20385;-91
2022/03/14 14:25:12;;;;;;;36.42;18.92;;;;;;;9.29;100.00;102375.59;10217766;29;20422;-87
2022/03/14 14:30:15;;;;;;;32.17;17.92;;;;;;;9.48;100.00;102388.50;10219357;29;20031;-92
2022/03/14 14:35:19;;;;;;;25.17;15.57;;;;;;;9.45;100.00;102330.38;10214262;29;20031;-92
2022/03/14 14:40:22;;;;;;;24.05;14.65;;;;;;;9.25;100.00;102269.88;10204267;29;20023;-93
2022/03/14 14:45:23;;;;;;;23.38;14.55;;;;;;;10.06;100.00;102409.88;10175185;29;20035;-93
2022/03/14 14:50:31;;;;;;;34.28;13.73;;;;;;;10.10;100.00;102341.50;10220031;29;20042;-92
2022/03/14 14:55:42;;;;;;;21.58;10.65;;;;;;;9.58;100.00;102192.03;10207079;29;20038;-92
2022/03/14 15:00:54;;;;;;;11.25;6.53;;;;;;;10.79;100.00;102293.19;10200490;29;20114;-93
2022/03/14 15:06:00;;;;;;;13.00;6.47;;;;;;;11.83;100.00;102470.19;10187539;29;20465;-92
2022/03/14 15:11:08;;;;;;;12.30;6.40;;;;;;;10.05;100.00;102253.25;10200776;29;20035;-92
2022/03/14 15:16:11;;;;;;;12.13;5.00;;;;;;;10.85;100.00;102432.81;10204653;29;20034;-92
2022/03/14 15:21:30;;;;;;;17.23;5.88;;;;;;;9.99;100.00;102332.00;10189790;29;20375;-92
2022/03/14 15:26:31;;;;;;;10.85;4.60;;;;;;;9.81;100.00;102290.56;10181732;29;20095;-88
2022/03/14 15:32:19;;;;;;;;;;;;;;;;;;;;;
2022/03/14 15:37:45;;;;;;;10.95;3.13;;;;;;;12.32;100.00;102432.66;10211245;29;20038;-94
2022/03/14 15:42:46;;;;;;;10.82;2.95;;;;;;;13.02;100.00;102362.31;10198735;29;20031;-91
2022/03/14 15:47:49;;;;;;;15.77;3.97;;;;;;;13.19;100.00;102334.81;10206459;29;20047;-92
2022/03/14 15:52:58;;;;;;;19.03;3.80;;;;;;;13.64;100.00;102208.94;10039250;29;3716380;-92
2022/03/14 15:58:14;;;;;;;12.32;4.00;;;;;;;13.27;100.00;102328.94;10173953;29;20038;-92
2022/03/14 16:03:14;;;;;;;16.55;3.67;;;;;;;12.85;100.00;102336.38;10187783;29;20439;-92
2022/03/14 16:08:22;;;;;;;11.60;3.72;;;;;;;13.06;100.00;102391.16;10185034;29;20145;-91
2022/03/14 16:13:30;;;;;;;26.38;4.32;;;;;;;12.63;100.00;102402.34;10207923;29;20023;-91
2022/03/14 16:18:31;;;;;;;13.23;4.15;;;;;;;12.59;100.00;102497.81;10199053;29;20019;-91
2022/03/14 16:23:39;;;;;;;12.00;3.25;;;;;;;11.10;100.00;102349.38;10188541;29;20016;-91
2022/03/14 16:28:47;;;;;;;13.70;4.00;;;;;;;10.46;100.00;102329.97;10188432;29;20019;-92
2022/03/14 16:33:48;;;;;;;10.95;3.20;;;;;;;10.84;100.00;102491.72;10220985;29;20387;-91
2022/03/14 16:38:49;;;;;;;12.80;3.55;;;;;;;10.11;100.00;102387.22;10192984;29;20023;-92
2022/03/14 16:43:50;;;;;;;12.52;3.97;;;;;;;9.66;100.00;102385.13;10194702;29;20489;-89
2022/03/14 16:48:50;;;;;;;12.70;3.45;;;;;;;9.64;100.00;102411.16;10204783;29;20316;-90
2022/03/14 16:53:51;;;;;;;12.95;3.33;;;;;;;8.91;100.00;102318.47;10214992;29;20082;-90
2022/03/14 16:58:52;;;;;;;12.95;3.70;;;;;;;9.77;100.00;102499.16;10208142;29;20035;-90
2022/03/14 17:03:55;;;;;;;14.07;3.25;;;;;;;9.28;100.00;102442.59;10184743;29;20025;-90
2022/03/14 17:08:56;;;;;;;13.85;3.38;;;;;;;8.95;100.00;102431.50;10176518;29;20031;-90
2022/03/14 17:13:57;;;;;;;9.50;3.20;;;;;;;8.91;100.00;102461.28;10192284;29;20477;-90
2022/03/14 17:19:00;;;;;;;12.38;4.35;;;;;;;8.46;100.00;102425.16;10169000;29;20020;-90
2022/03/14 17:24:03;;;;;;;12.68;4.30;;;;;;;7.45;100.00;102291.09;10154059;29;20061;-91
2022/03/14 17:29:04;;;;;;;17.23;3.63;;;;;;;7.71;100.00;102386.41;10186031;29;20035;-90
2022/03/14 17:34:04;;;;;;;12.02;3.40;;;;;;;7.62;100.00;102420.47;10153164;29;20062;-92
2022/03/14 17:39:06;;;;;;;14.88;3.97;;;;;;;6.98;100.00;102389.25;10178483;29;20051;-90
2022/03/14 17:44:10;;;;;;;15.80;3.80;;;;;;;7.49;100.00;102528.06;10188841;29;20019;-90
2022/03/14 17:49:11;;;;;;;16.42;4.90;;;;;;;7.55;100.00;102553.88;10223110;28;20469;-91
2022/03/14 17:54:14;;;;;;;11.90;3.97;;;;;;;6.55;100.00;102438.44;10200412;28;20091;-92
2022/03/14 17:59:15;;;;;;;11.38;4.85;;;;;;;6.85;100.00;102578.00;10204011;28;20031;-91
2022/03/14 18:04:16;;;;;;;26.45;6.32;;;;;;;6.55;100.00;102558.84;10203362;28;20035;-90
2022/03/14 18:09:16;;;;;;;22.10;6.00;;;;;;;6.26;100.00;102543.19;10208283;28;20024;-91
2022/03/14 18:14:19;;;;;;;17.13;6.07;;;;;;;6.24;100.00;102578.94;10193453;29;20118;-91
2022/03/14 18:19:23;;;;;;;23.05;6.10;;;;;;;5.56;100.00;102487.69;10208098;29;20572;-94
2022/03/14 18:24:24;;;;;;;24.00;5.95;;;;;;;4.99;100.00;102453.38;10208319;29;20109;-95
2022/03/14 18:29:37;;;;;;;17.55;6.30;;;;;;;6.59;100.00;102728.97;10188217;29;20460;-95
2022/03/14 18:34:42;;;;;;;20.63;6.78;;;;;;;5.84;100.00;102600.03;10187720;29;20020;-94
2022/03/14 18:39:48;;;;;;;21.63;5.40;;;;;;;5.36;100.00;102525.53;10168746;29;20196;-94
2022/03/14 18:45:11;;;;;;;16.27;5.75;;;;;;;5.82;100.00;102634.03;10168710;29;20099;-93
2022/03/14 18:50:35;;;;;;;11.38;4.47;;;;;;;5.65;100.00;102611.44;10172908;29;20066;-94
2022/03/14 18:55:39;;;;;;;22.30;5.83;;;;;;;5.53;100.00;102597.31;10167604;29;20051;-94
2022/03/14 19:00:41;;;;;;;20.33;5.05;;;;;;;6.41;100.00;102765.69;10167398;29;20047;-93
2022/03/14 19:05:42;;;;;;;18.60;5.15;;;;;;;4.90;100.00;102470.81;10167358;29;20037;-92
2022/03/14 19:10:46;;;;;;;15.65;6.78;;;;;;;5.94;100.00;102651.75;10182844;29;20028;-92
2022/03/14 19:15:47;;;;;;;13.75;4.78;;;;;;;5.68;100.00;102626.59;10167670;29;20152;-93
2022/03/14 19:21:27;;;;;;;16.25;4.80;;;;;;;5.26;100.00;102585.81;10161458;29;20042;-94
2022/03/14 19:26:33;;;;;;;9.52;4.30;;;;;;;5.44;100.00;102637.47;10188581;29;20102;-94
2022/03/14 19:31:39;;;;;;;14.43;4.10;;;;;;;4.58;100.00;102532.66;10199900;29;20023;-94
2022/03/14 19:37:03;;;;;;;17.40;4.32;;;;;;;5.42;100.00;102677.78;10122678;29;20119;-94
2022/03/14 19:42:13;;;;;;;;;;;;;;;6.11;100.00;102772.84;10183528;29;20047;-96
2022/03/14 19:47:19;;;;;;;8.88;3.47;;;;;;;4.99;100.00;102584.38;10182104;29;19949;-93
2022/03/14 19:52:42;;;;;;;13.52;5.05;;;;;;;4.08;100.00;102471.03;10167657;29;20059;-93
2022/03/14 19:57:55;;;;;;;11.90;4.57;;;;;;;4.35;100.00;102505.25;10191017;29;20090;-93
2022/03/14 20:03:22;;;;;;;;;;;;;;;;;;;;;
2022/03/14 20:08:52;;;;;;;22.02;5.43;;;;;;;5.20;100.00;102681.25;10188230;29;20471;-93
2022/03/14 20:14:20;;;;;;;12.15;4.35;;;;;;;5.04;100.00;102691.19;10193130;29;20035;-93
2022/03/14 20:19:36;;;;;;;;;;;;;;;;;;;;;
2022/03/14 20:25:04;;;;;;;14.73;4.65;;;;;;;5.29;100.00;102742.16;10179061;29;20094;-93
2022/03/14 20:30:26;;;;;;;;;;;;;;;;;;;;;
2022/03/14 20:36:02;;;;;;;18.38;4.97;;;;;;;3.54;100.00;102536.06;10190920;29;20048;-93
2022/03/14 20:41:29;;;;;;;20.70;7.70;;;;;;;2.86;100.00;102452.69;10194032;29;20388;-93
2022/03/14 20:46:42;;;;;;;;;;;;;;;;;;;;;
2022/03/14 20:51:48;;;;;;;17.83;5.80;;;;;;;2.50;100.00;102469.16;10215089;29;20043;-93
2022/03/14 20:57:06;;;;;;;13.70;6.35;;;;;;;4.30;100.00;102814.88;10208430;28;20031;-93
2022/03/14 21:07:34;;;;;;;26.05;7.35;;;;;;;2.29;100.00;102450.53;10220871;28;20031;-93
2022/03/14 21:12:45;;;;;;;21.17;6.35;;;;;;;2.52;100.00;102535.13;10189365;29;20015;-93
2022/03/14 21:18:08;;;;;;;21.63;6.90;;;;;;;3.21;100.00;102653.00;10188789;28;20031;-93
2022/03/14 21:23:31;;;;;;;16.80;7.50;;;;;;;3.98;100.00;102784.63;10188074;28;20387;-93
2022/03/14 21:28:44;;;;;;;16.83;6.72;;;;;;;2.70;100.00;102603.06;10222718;29;20031;-93
2022/03/14 21:33:59;;;;;;;20.25;7.18;;;;;;;1.86;100.00;102493.03;10226427;29;20376;-93
2022/03/14 21:39:16;;;;;;;23.67;7.40;;;;;;;3.60;100.00;102775.94;10241518;28;20027;-93
2022/03/14 21:44:29;;;;;;;22.33;7.65;;;;;;;1.97;100.00;102561.53;10200946;29;20502;-93
2022/03/14 21:49:47;;;;;;;16.05;6.75;;;;;;;2.61;100.00;102665.53;10178393;29;20114;-93
2022/03/14 21:54:57;;;;;;;22.10;6.20;;;;;;;3.10;100.00;102790.22;10157366;29;20106;-94
2022/03/14 22:00:09;;;;;;;19.83;6.93;;;;;;;1.57;100.00;102581.88;10221720;29;20067;-93
2022/03/14 22:05:21;;;;;;;20.95;8.15;;;;;;;1.78;100.00;102624.19;10211297;29;20030;-93
2022/03/14 22:10:33;;;;;;;26.33;6.57;;;;;;;2.43;100.00;102743.53;10168591;28;20030;-94
2022/03/14 22:15:34;;;;;;;18.23;7.53;;;;;;;1.89;100.00;102642.09;10226817;28;20028;-93
2022/03/14 22:20:36;;;;;;;15.18;5.65;;;;;;;0.77;100.00;102491.22;10198628;29;20035;-95
2022/03/14 22:25:43;;;;;;;21.90;7.70;;;;;;;1.15;100.00;102576.09;10208092;29;20024;-94
2022/03/14 22:30:44;;;;;;;18.15;8.30;;;;;;;1.28;100.00;102609.19;10169205;29;20079;-94
2022/03/14 22:35:44;;;;;;;21.92;8.18;;;;;;;0.61;100.00;102516.25;10219416;28;20023;-92
2022/03/14 22:40:45;;;;;;;22.27;9.45;;;;;;;1.67;100.00;102701.25;10192096;29;20031;-94
2022/03/14 22:45:48;;;;;;;23.83;11.60;;;;;;;0.50;100.00;102502.88;10207593;29;20126;-94
2022/03/14 22:50:50;;;;;;;29.80;11.15;;;;;;;1.66;100.00;102685.13;10208245;29;20093;-93
2022/03/14 22:55:51;;;;;;;26.77;12.45;;;;;;;2.24;100.00;102800.75;10184052;29;20414;-93
2022/03/14 23:00:53;;;;;;;44.38;14.00;;;;;;;0.67;100.00;102503.97;10167772;29;20135;-94
2022/03/14 23:06:00;;;;;;;31.73;12.52;;;;;;;1.00;100.00;102579.31;10168741;29;20548;-93
2022/03/14 23:16:32;;;;;;;35.17;15.77;;;;;;;1.10;100.00;102608.25;10188340;29;20027;-94
2022/03/14 23:21:37;;;;;;;30.33;13.43;;;;;;;1.09;100.00;102641.78;10168287;29;20098;-94
2022/03/14 23:26:41;;;;;;;29.10;13.35;;;;;;;1.42;100.00;102709.06;10168813;29;20032;-93